sensor_id;sensor_type;location;lat;lon;timestamp;P1;durP1;ratioP1;P2;durP2;ratioP2
67272;SDS011;54190;49.770;9.250;2023-09-19T00:00:18;2.33;;;1.50;;
67272;SDS011;54190;49.770;9.250;2023-09-19T00:02:58;2.57;;;1.30;;
67272;SDS011;54190;49.770;9.250;2023-09-19T00:05:27;4.47;;;1.90;;
67272;SDS011;54190;49.770;9.250;2023-09-19T00:07:55;3.13;;;1.40;;
67272;SDS011;54190;49.770;9.250;2023-09-19T00:10:26;3.83;;;1.73;;
67272;SDS011;54190;49.770;9.250;2023-09-19T00:12:55;3.50;;;1.63;;
67272;SDS011;54190;49.770;9.250;2023-09-19T00:15:24;3.60;;;1.50;;
67272;SDS011;54190;49.770;9.250;2023-09-19T00:17:53;5.23;;;1.93;;
67272;SDS011;54190;49.770;9.250;2023-09-19T00:20:20;3.20;;;1.37;;
67272;SDS011;54190;49.770;9.250;2023-09-19T00:22:48;2.40;;;1.57;;
67272;SDS011;54190;49.770;9.250;2023-09-19T00:25:18;3.23;;;1.70;;
67272;SDS011;54190;49.770;9.250;2023-09-19T00:27:45;2.80;;;1.50;;
67272;SDS011;54190;49.770;9.250;2023-09-19T00:30:16;4.03;;;1.90;;
67272;SDS011;54190;49.770;9.250;2023-09-19T00:32:49;3.10;;;1.57;;
67272;SDS011;54190;49.770;9.250;2023-09-19T00:35:19;3.67;;;1.60;;
67272;SDS011;54190;49.770;9.250;2023-09-19T00:37:46;3.50;;;1.77;;
67272;SDS011;54190;49.770;9.250;2023-09-19T00:40:11;3.80;;;1.80;;
67272;SDS011;54190;49.770;9.250;2023-09-19T00:42:40;7.33;;;1.50;;
67272;SDS011;54190;49.770;9.250;2023-09-19T00:45:11;4.03;;;1.80;;
67272;SDS011;54190;49.770;9.250;2023-09-19T00:47:45;4.80;;;1.63;;
67272;SDS011;54190;49.770;9.250;2023-09-19T00:50:17;3.30;;;1.80;;
67272;SDS011;54190;49.770;9.250;2023-09-19T00:52:44;6.80;;;2.23;;
67272;SDS011;54190;49.770;9.250;2023-09-19T00:55:12;4.77;;;1.80;;
67272;SDS011;54190;49.770;9.250;2023-09-19T00:57:41;2.40;;;1.50;;
67272;SDS011;54190;49.770;9.250;2023-09-19T01:00:07;3.87;;;1.77;;
67272;SDS011;54190;49.770;9.250;2023-09-19T01:02:37;6.30;;;2.30;;
67272;SDS011;54190;49.770;9.250;2023-09-19T01:05:03;3.83;;;1.77;;
67272;SDS011;54190;49.770;9.250;2023-09-19T01:07:31;3.37;;;1.87;;
67272;SDS011;54190;49.770;9.250;2023-09-19T01:09:58;4.77;;;1.80;;
67272;SDS011;54190;49.770;9.250;2023-09-19T01:12:32;3.30;;;1.73;;
67272;SDS011;54190;49.770;9.250;2023-09-19T01:15:11;3.80;;;1.80;;
67272;SDS011;54190;49.770;9.250;2023-09-19T01:17:46;3.57;;;1.90;;
67272;SDS011;54190;49.770;9.250;2023-09-19T01:23:01;6.30;;;2.10;;
67272;SDS011;54190;49.770;9.250;2023-09-19T01:25:48;2.93;;;1.57;;
67272;SDS011;54190;49.770;9.250;2023-09-19T01:28:39;5.07;;;2.00;;
67272;SDS011;54190;49.770;9.250;2023-09-19T01:31:28;5.80;;;2.20;;
67272;SDS011;54190;49.770;9.250;2023-09-19T01:34:00;3.03;;;1.97;;
67272;SDS011;54190;49.770;9.250;2023-09-19T01:36:30;4.60;;;2.27;;
67272;SDS011;54190;49.770;9.250;2023-09-19T01:39:00;2.83;;;1.87;;
67272;SDS011;54190;49.770;9.250;2023-09-19T01:41:38;5.90;;;2.27;;
67272;SDS011;54190;49.770;9.250;2023-09-19T01:44:22;5.33;;;2.63;;
67272;SDS011;54190;49.770;9.250;2023-09-19T01:47:02;4.80;;;2.60;;
67272;SDS011;54190;49.770;9.250;2023-09-19T01:49:42;4.20;;;2.70;;
67272;SDS011;54190;49.770;9.250;2023-09-19T01:52:15;3.63;;;2.20;;
67272;SDS011;54190;49.770;9.250;2023-09-19T01:54:52;4.33;;;2.00;;
67272;SDS011;54190;49.770;9.250;2023-09-19T01:57:40;3.67;;;2.10;;
67272;SDS011;54190;49.770;9.250;2023-09-19T02:00:17;5.23;;;2.30;;
67272;SDS011;54190;49.770;9.250;2023-09-19T02:02:47;3.77;;;2.20;;
67272;SDS011;54190;49.770;9.250;2023-09-19T02:05:13;5.83;;;2.50;;
67272;SDS011;54190;49.770;9.250;2023-09-19T02:07:48;5.00;;;2.33;;
67272;SDS011;54190;49.770;9.250;2023-09-19T02:10:15;6.70;;;3.10;;
67272;SDS011;54190;49.770;9.250;2023-09-19T02:12:42;5.50;;;2.70;;
67272;SDS011;54190;49.770;9.250;2023-09-19T02:15:07;3.60;;;2.60;;
67272;SDS011;54190;49.770;9.250;2023-09-19T02:17:34;8.03;;;2.67;;
67272;SDS011;54190;49.770;9.250;2023-09-19T02:19:59;4.90;;;2.40;;
67272;SDS011;54190;49.770;9.250;2023-09-19T02:22:25;3.43;;;2.40;;
67272;SDS011;54190;49.770;9.250;2023-09-19T02:24:52;4.40;;;2.67;;
67272;SDS011;54190;49.770;9.250;2023-09-19T02:27:19;6.17;;;2.53;;
67272;SDS011;54190;49.770;9.250;2023-09-19T02:29:44;3.90;;;2.40;;
67272;SDS011;54190;49.770;9.250;2023-09-19T02:32:10;5.27;;;2.50;;
67272;SDS011;54190;49.770;9.250;2023-09-19T02:34:36;5.07;;;2.67;;
67272;SDS011;54190;49.770;9.250;2023-09-19T02:37:04;4.87;;;2.63;;
67272;SDS011;54190;49.770;9.250;2023-09-19T02:39:33;3.97;;;2.47;;
67272;SDS011;54190;49.770;9.250;2023-09-19T02:42:00;5.50;;;2.47;;
67272;SDS011;54190;49.770;9.250;2023-09-19T02:44:26;4.60;;;2.50;;
67272;SDS011;54190;49.770;9.250;2023-09-19T02:46:52;3.23;;;2.23;;
67272;SDS011;54190;49.770;9.250;2023-09-19T02:49:18;5.20;;;2.90;;
67272;SDS011;54190;49.770;9.250;2023-09-19T02:51:44;4.73;;;2.47;;
67272;SDS011;54190;49.770;9.250;2023-09-19T02:54:10;4.30;;;2.83;;
67272;SDS011;54190;49.770;9.250;2023-09-19T02:56:36;6.57;;;3.20;;
67272;SDS011;54190;49.770;9.250;2023-09-19T02:59:03;5.80;;;2.50;;
67272;SDS011;54190;49.770;9.250;2023-09-19T03:01:29;6.73;;;2.20;;
67272;SDS011;54190;49.770;9.250;2023-09-19T03:03:55;4.80;;;2.67;;
67272;SDS011;54190;49.770;9.250;2023-09-19T03:06:21;4.97;;;2.40;;
67272;SDS011;54190;49.770;9.250;2023-09-19T03:08:49;5.50;;;2.80;;
67272;SDS011;54190;49.770;9.250;2023-09-19T03:11:17;3.83;;;2.30;;
67272;SDS011;54190;49.770;9.250;2023-09-19T03:13:54;3.63;;;2.30;;
67272;SDS011;54190;49.770;9.250;2023-09-19T03:16:21;4.50;;;2.47;;
67272;SDS011;54190;49.770;9.250;2023-09-19T03:18:48;4.33;;;2.40;;
67272;SDS011;54190;49.770;9.250;2023-09-19T03:21:15;4.13;;;2.33;;
67272;SDS011;54190;49.770;9.250;2023-09-19T03:23:42;5.13;;;2.50;;
67272;SDS011;54190;49.770;9.250;2023-09-19T03:26:10;3.07;;;2.10;;
67272;SDS011;54190;49.770;9.250;2023-09-19T03:28:41;4.70;;;2.10;;
67272;SDS011;54190;49.770;9.250;2023-09-19T03:31:16;3.67;;;2.23;;
67272;SDS011;54190;49.770;9.250;2023-09-19T03:33:41;4.40;;;2.00;;
67272;SDS011;54190;49.770;9.250;2023-09-19T03:36:07;3.40;;;2.23;;
67272;SDS011;54190;49.770;9.250;2023-09-19T03:38:33;3.30;;;2.20;;
67272;SDS011;54190;49.770;9.250;2023-09-19T03:41:00;5.97;;;2.20;;
67272;SDS011;54190;49.770;9.250;2023-09-19T03:43:26;4.30;;;2.10;;
67272;SDS011;54190;49.770;9.250;2023-09-19T03:45:53;4.50;;;2.10;;
67272;SDS011;54190;49.770;9.250;2023-09-19T03:48:20;5.23;;;2.50;;
67272;SDS011;54190;49.770;9.250;2023-09-19T03:50:47;4.93;;;2.20;;
67272;SDS011;54190;49.770;9.250;2023-09-19T03:53:13;5.00;;;2.10;;
67272;SDS011;54190;49.770;9.250;2023-09-19T03:55:38;4.30;;;2.13;;
67272;SDS011;54190;49.770;9.250;2023-09-19T03:58:05;3.80;;;2.47;;
67272;SDS011;54190;49.770;9.250;2023-09-19T04:00:31;4.60;;;2.30;;
67272;SDS011;54190;49.770;9.250;2023-09-19T04:02:58;3.67;;;2.30;;
67272;SDS011;54190;49.770;9.250;2023-09-19T04:05:23;3.67;;;2.43;;
67272;SDS011;54190;49.770;9.250;2023-09-19T04:07:49;4.50;;;2.30;;
67272;SDS011;54190;49.770;9.250;2023-09-19T04:10:15;3.27;;;2.17;;
67272;SDS011;54190;49.770;9.250;2023-09-19T04:12:50;4.20;;;2.40;;
67272;SDS011;54190;49.770;9.250;2023-09-19T04:15:17;5.13;;;2.47;;
67272;SDS011;54190;49.770;9.250;2023-09-19T04:17:43;4.17;;;2.40;;
67272;SDS011;54190;49.770;9.250;2023-09-19T04:20:09;3.80;;;2.40;;
67272;SDS011;54190;49.770;9.250;2023-09-19T04:22:37;6.77;;;2.73;;
67272;SDS011;54190;49.770;9.250;2023-09-19T04:25:04;3.27;;;2.47;;
67272;SDS011;54190;49.770;9.250;2023-09-19T04:27:32;3.27;;;2.50;;
67272;SDS011;54190;49.770;9.250;2023-09-19T04:29:58;7.00;;;2.80;;
67272;SDS011;54190;49.770;9.250;2023-09-19T04:32:24;4.73;;;2.63;;
67272;SDS011;54190;49.770;9.250;2023-09-19T04:34:53;5.20;;;2.70;;
67272;SDS011;54190;49.770;9.250;2023-09-19T04:37:19;4.00;;;3.03;;
67272;SDS011;54190;49.770;9.250;2023-09-19T04:39:46;5.17;;;2.77;;
67272;SDS011;54190;49.770;9.250;2023-09-19T04:42:12;3.27;;;2.40;;
67272;SDS011;54190;49.770;9.250;2023-09-19T04:44:39;4.93;;;2.60;;
67272;SDS011;54190;49.770;9.250;2023-09-19T04:47:05;3.90;;;2.60;;
67272;SDS011;54190;49.770;9.250;2023-09-19T04:49:31;4.13;;;2.77;;
67272;SDS011;54190;49.770;9.250;2023-09-19T04:51:56;5.13;;;3.10;;
67272;SDS011;54190;49.770;9.250;2023-09-19T04:54:22;4.53;;;3.00;;
67272;SDS011;54190;49.770;9.250;2023-09-19T04:56:48;6.63;;;2.93;;
67272;SDS011;54190;49.770;9.250;2023-09-19T04:59:13;5.10;;;3.27;;
67272;SDS011;54190;49.770;9.250;2023-09-19T05:01:40;4.40;;;3.10;;
67272;SDS011;54190;49.770;9.250;2023-09-19T05:04:05;5.20;;;3.00;;
67272;SDS011;54190;49.770;9.250;2023-09-19T05:06:31;4.60;;;2.90;;
67272;SDS011;54190;49.770;9.250;2023-09-19T05:08:58;6.07;;;3.33;;
67272;SDS011;54190;49.770;9.250;2023-09-19T05:11:25;4.80;;;2.90;;
67272;SDS011;54190;49.770;9.250;2023-09-19T05:13:51;5.30;;;3.30;;
67272;SDS011;54190;49.770;9.250;2023-09-19T05:16:18;4.30;;;3.00;;
67272;SDS011;54190;49.770;9.250;2023-09-19T05:18:44;5.00;;;2.97;;
67272;SDS011;54190;49.770;9.250;2023-09-19T05:21:10;4.80;;;3.10;;
67272;SDS011;54190;49.770;9.250;2023-09-19T05:23:35;5.23;;;3.20;;
67272;SDS011;54190;49.770;9.250;2023-09-19T05:26:02;4.83;;;3.10;;
67272;SDS011;54190;49.770;9.250;2023-09-19T05:28:29;8.67;;;4.37;;
67272;SDS011;54190;49.770;9.250;2023-09-19T05:30:54;5.97;;;3.73;;
67272;SDS011;54190;49.770;9.250;2023-09-19T05:33:20;7.27;;;3.50;;
67272;SDS011;54190;49.770;9.250;2023-09-19T05:35:49;5.37;;;3.77;;
67272;SDS011;54190;49.770;9.250;2023-09-19T05:38:15;6.23;;;3.90;;
67272;SDS011;54190;49.770;9.250;2023-09-19T05:40:44;4.70;;;3.93;;
67272;SDS011;54190;49.770;9.250;2023-09-19T05:43:10;5.60;;;4.00;;
67272;SDS011;54190;49.770;9.250;2023-09-19T05:45:36;6.90;;;4.27;;
67272;SDS011;54190;49.770;9.250;2023-09-19T05:50:36;6.47;;;4.57;;
67272;SDS011;54190;49.770;9.250;2023-09-19T05:53:02;7.50;;;4.40;;
67272;SDS011;54190;49.770;9.250;2023-09-19T05:55:29;7.23;;;4.57;;
67272;SDS011;54190;49.770;9.250;2023-09-19T05:57:55;7.53;;;4.77;;
67272;SDS011;54190;49.770;9.250;2023-09-19T06:00:21;5.20;;;4.20;;
67272;SDS011;54190;49.770;9.250;2023-09-19T06:02:51;5.67;;;4.17;;
67272;SDS011;54190;49.770;9.250;2023-09-19T06:05:17;6.20;;;4.20;;
67272;SDS011;54190;49.770;9.250;2023-09-19T06:07:44;7.43;;;4.17;;
67272;SDS011;54190;49.770;9.250;2023-09-19T06:10:09;7.10;;;3.90;;
67272;SDS011;54190;49.770;9.250;2023-09-19T06:12:41;7.70;;;4.80;;
67272;SDS011;54190;49.770;9.250;2023-09-19T06:15:10;6.70;;;4.60;;
67272;SDS011;54190;49.770;9.250;2023-09-19T06:17:51;7.23;;;4.70;;
67272;SDS011;54190;49.770;9.250;2023-09-19T06:20:20;7.67;;;4.73;;
67272;SDS011;54190;49.770;9.250;2023-09-19T06:22:47;8.67;;;4.10;;
67272;SDS011;54190;49.770;9.250;2023-09-19T06:25:14;7.20;;;4.40;;
67272;SDS011;54190;49.770;9.250;2023-09-19T06:27:44;6.83;;;3.97;;
67272;SDS011;54190;49.770;9.250;2023-09-19T06:30:11;7.67;;;3.80;;
67272;SDS011;54190;49.770;9.250;2023-09-19T06:32:37;9.50;;;3.90;;
67272;SDS011;54190;49.770;9.250;2023-09-19T06:35:03;7.80;;;4.20;;
67272;SDS011;54190;49.770;9.250;2023-09-19T06:37:32;6.27;;;4.10;;
67272;SDS011;54190;49.770;9.250;2023-09-19T06:39:59;7.77;;;3.93;;
67272;SDS011;54190;49.770;9.250;2023-09-19T06:42:25;5.17;;;3.67;;
67272;SDS011;54190;49.770;9.250;2023-09-19T06:44:51;6.30;;;3.63;;
67272;SDS011;54190;49.770;9.250;2023-09-19T06:47:16;10.80;;;3.97;;
67272;SDS011;54190;49.770;9.250;2023-09-19T06:49:42;7.40;;;4.03;;
67272;SDS011;54190;49.770;9.250;2023-09-19T06:52:09;6.10;;;3.90;;
67272;SDS011;54190;49.770;9.250;2023-09-19T06:54:35;6.17;;;4.23;;
67272;SDS011;54190;49.770;9.250;2023-09-19T06:57:01;8.97;;;3.50;;
67272;SDS011;54190;49.770;9.250;2023-09-19T06:59:27;6.90;;;3.90;;
67272;SDS011;54190;49.770;9.250;2023-09-19T07:01:52;5.70;;;3.77;;
67272;SDS011;54190;49.770;9.250;2023-09-19T07:04:18;5.23;;;3.90;;
67272;SDS011;54190;49.770;9.250;2023-09-19T07:06:48;7.57;;;3.50;;
67272;SDS011;54190;49.770;9.250;2023-09-19T07:09:15;5.60;;;3.80;;
67272;SDS011;54190;49.770;9.250;2023-09-19T07:11:41;4.80;;;3.43;;
67272;SDS011;54190;49.770;9.250;2023-09-19T07:14:07;5.53;;;4.00;;
67272;SDS011;54190;49.770;9.250;2023-09-19T07:16:36;6.47;;;3.83;;
67272;SDS011;54190;49.770;9.250;2023-09-19T07:19:04;6.47;;;4.33;;
67272;SDS011;54190;49.770;9.250;2023-09-19T07:21:30;7.33;;;4.40;;
67272;SDS011;54190;49.770;9.250;2023-09-19T07:23:55;5.60;;;3.80;;
67272;SDS011;54190;49.770;9.250;2023-09-19T07:26:21;6.60;;;3.70;;
67272;SDS011;54190;49.770;9.250;2023-09-19T07:28:47;8.20;;;4.07;;
67272;SDS011;54190;49.770;9.250;2023-09-19T07:31:12;6.40;;;3.63;;
67272;SDS011;54190;49.770;9.250;2023-09-19T07:33:39;4.67;;;3.57;;
67272;SDS011;54190;49.770;9.250;2023-09-19T07:36:05;5.93;;;3.83;;
67272;SDS011;54190;49.770;9.250;2023-09-19T07:38:34;9.97;;;3.57;;
67272;SDS011;54190;49.770;9.250;2023-09-19T07:41:00;6.67;;;3.80;;
67272;SDS011;54190;49.770;9.250;2023-09-19T07:43:27;7.37;;;3.43;;
67272;SDS011;54190;49.770;9.250;2023-09-19T07:45:53;6.70;;;4.27;;
67272;SDS011;54190;49.770;9.250;2023-09-19T07:48:18;7.60;;;3.93;;
67272;SDS011;54190;49.770;9.250;2023-09-19T07:50:44;7.30;;;3.43;;
67272;SDS011;54190;49.770;9.250;2023-09-19T07:53:10;6.77;;;3.20;;
67272;SDS011;54190;49.770;9.250;2023-09-19T07:55:38;8.00;;;3.97;;
67272;SDS011;54190;49.770;9.250;2023-09-19T07:58:06;6.00;;;3.53;;
67272;SDS011;54190;49.770;9.250;2023-09-19T08:00:32;7.70;;;3.80;;
67272;SDS011;54190;49.770;9.250;2023-09-19T08:02:59;5.40;;;3.60;;
67272;SDS011;54190;49.770;9.250;2023-09-19T08:05:26;5.33;;;3.87;;
67272;SDS011;54190;49.770;9.250;2023-09-19T08:07:52;6.20;;;3.57;;
67272;SDS011;54190;49.770;9.250;2023-09-19T08:10:21;6.53;;;3.60;;
67272;SDS011;54190;49.770;9.250;2023-09-19T08:12:47;6.30;;;3.30;;
67272;SDS011;54190;49.770;9.250;2023-09-19T08:15:14;4.97;;;3.40;;
67272;SDS011;54190;49.770;9.250;2023-09-19T08:17:41;6.33;;;3.20;;
67272;SDS011;54190;49.770;9.250;2023-09-19T08:20:07;5.00;;;2.90;;
67272;SDS011;54190;49.770;9.250;2023-09-19T08:22:42;7.00;;;2.73;;
67272;SDS011;54190;49.770;9.250;2023-09-19T08:25:19;9.03;;;3.27;;
67272;SDS011;54190;49.770;9.250;2023-09-19T08:27:46;5.67;;;2.80;;
67272;SDS011;54190;49.770;9.250;2023-09-19T08:30:14;9.27;;;3.37;;
67272;SDS011;54190;49.770;9.250;2023-09-19T08:32:41;5.37;;;2.83;;
67272;SDS011;54190;49.770;9.250;2023-09-19T08:35:08;4.90;;;2.67;;
67272;SDS011;54190;49.770;9.250;2023-09-19T08:37:34;6.30;;;3.47;;
67272;SDS011;54190;49.770;9.250;2023-09-19T08:40:00;4.33;;;2.87;;
67272;SDS011;54190;49.770;9.250;2023-09-19T08:42:26;4.60;;;2.93;;
67272;SDS011;54190;49.770;9.250;2023-09-19T08:44:52;7.60;;;2.90;;
67272;SDS011;54190;49.770;9.250;2023-09-19T08:47:24;5.73;;;3.20;;
67272;SDS011;54190;49.770;9.250;2023-09-19T08:50:42;7.93;;;3.10;;
67272;SDS011;54190;49.770;9.250;2023-09-19T08:53:05;8.80;;;3.20;;
67272;SDS011;54190;49.770;9.250;2023-09-19T08:55:36;7.10;;;2.53;;
67272;SDS011;54190;49.770;9.250;2023-09-19T08:58:06;5.90;;;2.80;;
67272;SDS011;54190;49.770;9.250;2023-09-19T09:00:35;5.30;;;2.90;;
67272;SDS011;54190;49.770;9.250;2023-09-19T09:03:01;3.77;;;2.73;;
67272;SDS011;54190;49.770;9.250;2023-09-19T09:05:29;5.43;;;2.83;;
67272;SDS011;54190;49.770;9.250;2023-09-19T09:07:57;5.37;;;2.63;;
67272;SDS011;54190;49.770;9.250;2023-09-19T09:10:24;4.17;;;2.50;;
67272;SDS011;54190;49.770;9.250;2023-09-19T09:12:51;4.00;;;2.53;;
67272;SDS011;54190;49.770;9.250;2023-09-19T09:15:22;4.03;;;2.60;;
67272;SDS011;54190;49.770;9.250;2023-09-19T09:17:49;6.50;;;3.17;;
67272;SDS011;54190;49.770;9.250;2023-09-19T09:20:18;4.23;;;2.20;;
67272;SDS011;54190;49.770;9.250;2023-09-19T09:22:50;6.70;;;2.80;;
67272;SDS011;54190;49.770;9.250;2023-09-19T09:28:34;6.53;;;2.60;;
67272;SDS011;54190;49.770;9.250;2023-09-19T09:31:01;5.53;;;2.43;;
67272;SDS011;54190;49.770;9.250;2023-09-19T09:33:35;4.50;;;2.90;;
67272;SDS011;54190;49.770;9.250;2023-09-19T09:36:01;4.57;;;2.67;;
67272;SDS011;54190;49.770;9.250;2023-09-19T09:38:29;3.73;;;2.67;;
67272;SDS011;54190;49.770;9.250;2023-09-19T09:41:08;6.53;;;2.50;;
67272;SDS011;54190;49.770;9.250;2023-09-19T09:48:56;5.60;;;2.57;;
67272;SDS011;54190;49.770;9.250;2023-09-19T09:51:42;4.90;;;2.67;;
67272;SDS011;54190;49.770;9.250;2023-09-19T09:54:12;6.57;;;2.53;;
67272;SDS011;54190;49.770;9.250;2023-09-19T09:56:55;7.17;;;2.70;;
67272;SDS011;54190;49.770;9.250;2023-09-19T09:59:58;7.43;;;3.00;;
67272;SDS011;54190;49.770;9.250;2023-09-19T10:02:41;4.67;;;2.60;;
67272;SDS011;54190;49.770;9.250;2023-09-19T10:05:14;4.50;;;2.73;;
67272;SDS011;54190;49.770;9.250;2023-09-19T10:07:54;5.30;;;2.60;;
67272;SDS011;54190;49.770;9.250;2023-09-19T10:10:37;4.27;;;2.80;;
67272;SDS011;54190;49.770;9.250;2023-09-19T10:13:10;5.30;;;2.80;;
67272;SDS011;54190;49.770;9.250;2023-09-19T10:15:39;8.03;;;3.00;;
67272;SDS011;54190;49.770;9.250;2023-09-19T10:18:11;10.40;;;2.63;;
67272;SDS011;54190;49.770;9.250;2023-09-19T10:20:42;5.57;;;3.20;;
67272;SDS011;54190;49.770;9.250;2023-09-19T10:23:14;5.40;;;3.20;;
67272;SDS011;54190;49.770;9.250;2023-09-19T10:25:47;6.60;;;2.97;;
67272;SDS011;54190;49.770;9.250;2023-09-19T10:28:15;3.93;;;2.60;;
67272;SDS011;54190;49.770;9.250;2023-09-19T10:30:46;4.00;;;2.77;;
67272;SDS011;54190;49.770;9.250;2023-09-19T10:33:15;5.00;;;2.77;;
67272;SDS011;54190;49.770;9.250;2023-09-19T10:35:42;6.27;;;2.93;;
67272;SDS011;54190;49.770;9.250;2023-09-19T10:38:10;5.80;;;2.40;;
67272;SDS011;54190;49.770;9.250;2023-09-19T10:40:37;6.33;;;2.50;;
67272;SDS011;54190;49.770;9.250;2023-09-19T10:43:10;4.90;;;2.60;;
67272;SDS011;54190;49.770;9.250;2023-09-19T10:45:37;5.97;;;3.17;;
67272;SDS011;54190;49.770;9.250;2023-09-19T10:48:06;5.00;;;2.90;;
67272;SDS011;54190;49.770;9.250;2023-09-19T10:50:43;4.53;;;2.77;;
67272;SDS011;54190;49.770;9.250;2023-09-19T10:53:20;4.63;;;2.80;;
67272;SDS011;54190;49.770;9.250;2023-09-19T10:55:56;5.23;;;2.63;;
67272;SDS011;54190;49.770;9.250;2023-09-19T10:58:31;6.63;;;2.50;;
67272;SDS011;54190;49.770;9.250;2023-09-19T11:01:04;5.10;;;2.40;;
67272;SDS011;54190;49.770;9.250;2023-09-19T11:03:40;4.57;;;2.80;;
67272;SDS011;54190;49.770;9.250;2023-09-19T11:09:00;4.90;;;2.70;;
67272;SDS011;54190;49.770;9.250;2023-09-19T11:11:40;6.63;;;2.80;;
67272;SDS011;54190;49.770;9.250;2023-09-19T11:14:28;6.67;;;3.20;;
67272;SDS011;54190;49.770;9.250;2023-09-19T11:30:45;6.27;;;2.90;;
67272;SDS011;54190;49.770;9.250;2023-09-19T11:33:17;5.93;;;3.00;;
67272;SDS011;54190;49.770;9.250;2023-09-19T11:36:07;8.43;;;3.37;;
67272;SDS011;54190;49.770;9.250;2023-09-19T11:41:52;5.67;;;2.83;;
67272;SDS011;54190;49.770;9.250;2023-09-19T11:46:29;5.73;;;2.97;;
67272;SDS011;54190;49.770;9.250;2023-09-19T11:49:04;5.30;;;2.80;;
67272;SDS011;54190;49.770;9.250;2023-09-19T11:51:44;6.83;;;2.97;;
67272;SDS011;54190;49.770;9.250;2023-09-19T11:54:11;5.33;;;2.90;;
67272;SDS011;54190;49.770;9.250;2023-09-19T11:56:43;3.67;;;2.50;;
67272;SDS011;54190;49.770;9.250;2023-09-19T11:59:10;3.57;;;2.37;;
67272;SDS011;54190;49.770;9.250;2023-09-19T12:01:37;4.27;;;2.33;;
67272;SDS011;54190;49.770;9.250;2023-09-19T12:04:11;4.63;;;2.67;;
67272;SDS011;54190;49.770;9.250;2023-09-19T12:06:37;4.90;;;2.60;;
67272;SDS011;54190;49.770;9.250;2023-09-19T12:09:13;6.67;;;2.50;;
67272;SDS011;54190;49.770;9.250;2023-09-19T12:11:42;5.10;;;2.07;;
67272;SDS011;54190;49.770;9.250;2023-09-19T12:14:11;6.30;;;2.40;;
67272;SDS011;54190;49.770;9.250;2023-09-19T12:16:56;4.87;;;2.30;;
67272;SDS011;54190;49.770;9.250;2023-09-19T12:19:23;3.87;;;2.07;;
67272;SDS011;54190;49.770;9.250;2023-09-19T12:21:56;6.10;;;2.83;;
67272;SDS011;54190;49.770;9.250;2023-09-19T12:24:24;5.27;;;2.50;;
67272;SDS011;54190;49.770;9.250;2023-09-19T12:26:54;5.07;;;2.13;;
67272;SDS011;54190;49.770;9.250;2023-09-19T12:29:29;4.00;;;2.37;;
67272;SDS011;54190;49.770;9.250;2023-09-19T12:31:59;4.40;;;2.30;;
67272;SDS011;54190;49.770;9.250;2023-09-19T12:34:31;6.27;;;2.07;;
67272;SDS011;54190;49.770;9.250;2023-09-19T12:37:07;3.73;;;1.90;;
67272;SDS011;54190;49.770;9.250;2023-09-19T12:39:44;5.17;;;2.27;;
67272;SDS011;54190;49.770;9.250;2023-09-19T12:42:23;3.00;;;1.97;;
67272;SDS011;54190;49.770;9.250;2023-09-19T12:44:54;4.17;;;1.93;;
67272;SDS011;54190;49.770;9.250;2023-09-19T12:47:22;6.40;;;2.00;;
67272;SDS011;54190;49.770;9.250;2023-09-19T12:50:08;2.70;;;1.70;;
67272;SDS011;54190;49.770;9.250;2023-09-19T12:55:31;4.43;;;2.37;;
67272;SDS011;54190;49.770;9.250;2023-09-19T13:00:44;3.10;;;2.00;;
67272;SDS011;54190;49.770;9.250;2023-09-19T13:06:00;4.67;;;2.00;;
67272;SDS011;54190;49.770;9.250;2023-09-19T13:08:30;5.57;;;1.87;;
67272;SDS011;54190;49.770;9.250;2023-09-19T13:11:13;5.67;;;2.47;;
67272;SDS011;54190;49.770;9.250;2023-09-19T13:14:13;4.00;;;2.00;;
67272;SDS011;54190;49.770;9.250;2023-09-19T13:16:55;4.10;;;1.70;;
67272;SDS011;54190;49.770;9.250;2023-09-19T13:25:23;3.07;;;1.90;;
67272;SDS011;54190;49.770;9.250;2023-09-19T13:27:56;4.50;;;2.10;;
67272;SDS011;54190;49.770;9.250;2023-09-19T13:30:22;7.40;;;2.47;;
67272;SDS011;54190;49.770;9.250;2023-09-19T13:35:34;5.20;;;2.13;;
67272;SDS011;54190;49.770;9.250;2023-09-19T13:38:03;4.03;;;2.00;;
67272;SDS011;54190;49.770;9.250;2023-09-19T13:40:29;4.63;;;2.20;;
67272;SDS011;54190;49.770;9.250;2023-09-19T13:42:55;3.67;;;2.23;;
67272;SDS011;54190;49.770;9.250;2023-09-19T13:45:21;3.70;;;2.30;;
67272;SDS011;54190;49.770;9.250;2023-09-19T13:47:49;4.37;;;1.90;;
67272;SDS011;54190;49.770;9.250;2023-09-19T13:50:15;4.17;;;2.60;;
67272;SDS011;54190;49.770;9.250;2023-09-19T13:52:42;3.73;;;1.60;;
67272;SDS011;54190;49.770;9.250;2023-09-19T13:55:08;2.97;;;2.03;;
67272;SDS011;54190;49.770;9.250;2023-09-19T13:57:33;6.50;;;2.17;;
67272;SDS011;54190;49.770;9.250;2023-09-19T13:59:59;2.90;;;1.70;;
67272;SDS011;54190;49.770;9.250;2023-09-19T14:02:25;5.30;;;2.40;;
67272;SDS011;54190;49.770;9.250;2023-09-19T14:04:51;5.53;;;2.40;;
67272;SDS011;54190;49.770;9.250;2023-09-19T14:07:17;6.60;;;2.20;;
67272;SDS011;54190;49.770;9.250;2023-09-19T14:09:43;5.50;;;2.17;;
67272;SDS011;54190;49.770;9.250;2023-09-19T14:12:10;4.17;;;2.10;;
67272;SDS011;54190;49.770;9.250;2023-09-19T14:14:36;3.83;;;1.80;;
67272;SDS011;54190;49.770;9.250;2023-09-19T14:17:02;4.73;;;2.53;;
67272;SDS011;54190;49.770;9.250;2023-09-19T14:19:29;4.43;;;1.80;;
67272;SDS011;54190;49.770;9.250;2023-09-19T14:21:55;5.37;;;1.97;;
67272;SDS011;54190;49.770;9.250;2023-09-19T14:24:21;4.60;;;2.27;;
67272;SDS011;54190;49.770;9.250;2023-09-19T14:26:47;3.23;;;1.97;;
67272;SDS011;54190;49.770;9.250;2023-09-19T14:29:14;4.10;;;1.77;;
67272;SDS011;54190;49.770;9.250;2023-09-19T14:31:40;4.80;;;2.00;;
67272;SDS011;54190;49.770;9.250;2023-09-19T14:34:06;3.27;;;2.10;;
67272;SDS011;54190;49.770;9.250;2023-09-19T14:36:34;4.13;;;1.83;;
67272;SDS011;54190;49.770;9.250;2023-09-19T14:39:00;3.27;;;2.20;;
67272;SDS011;54190;49.770;9.250;2023-09-19T14:41:26;4.80;;;1.83;;
67272;SDS011;54190;49.770;9.250;2023-09-19T14:43:52;4.47;;;1.73;;
67272;SDS011;54190;49.770;9.250;2023-09-19T14:46:17;8.43;;;2.07;;
67272;SDS011;54190;49.770;9.250;2023-09-19T14:48:44;4.00;;;2.03;;
67272;SDS011;54190;49.770;9.250;2023-09-19T14:51:13;4.17;;;2.30;;
67272;SDS011;54190;49.770;9.250;2023-09-19T14:53:39;5.47;;;1.90;;
67272;SDS011;54190;49.770;9.250;2023-09-19T14:56:09;3.90;;;2.20;;
67272;SDS011;54190;49.770;9.250;2023-09-19T14:58:36;3.80;;;2.00;;
67272;SDS011;54190;49.770;9.250;2023-09-19T15:03:33;3.47;;;2.20;;
67272;SDS011;54190;49.770;9.250;2023-09-19T15:06:04;4.90;;;2.10;;
67272;SDS011;54190;49.770;9.250;2023-09-19T15:08:31;4.33;;;2.10;;
67272;SDS011;54190;49.770;9.250;2023-09-19T15:10:59;4.63;;;2.00;;
67272;SDS011;54190;49.770;9.250;2023-09-19T15:13:29;4.80;;;2.13;;
67272;SDS011;54190;49.770;9.250;2023-09-19T15:16:05;5.20;;;2.40;;
67272;SDS011;54190;49.770;9.250;2023-09-19T15:18:35;4.33;;;1.87;;
67272;SDS011;54190;49.770;9.250;2023-09-19T15:21:09;4.77;;;2.10;;
67272;SDS011;54190;49.770;9.250;2023-09-19T15:23:36;4.73;;;2.10;;
67272;SDS011;54190;49.770;9.250;2023-09-19T15:26:13;4.07;;;2.00;;
67272;SDS011;54190;49.770;9.250;2023-09-19T15:28:42;3.40;;;2.00;;
67272;SDS011;54190;49.770;9.250;2023-09-19T15:31:09;4.10;;;2.00;;
67272;SDS011;54190;49.770;9.250;2023-09-19T15:33:35;4.43;;;2.13;;
67272;SDS011;54190;49.770;9.250;2023-09-19T15:36:14;4.47;;;1.80;;
67272;SDS011;54190;49.770;9.250;2023-09-19T15:41:25;4.17;;;2.00;;
67272;SDS011;54190;49.770;9.250;2023-09-19T15:43:53;3.13;;;2.00;;
67272;SDS011;54190;49.770;9.250;2023-09-19T15:46:19;4.90;;;1.83;;
67272;SDS011;54190;49.770;9.250;2023-09-19T15:48:45;4.37;;;1.77;;
67272;SDS011;54190;49.770;9.250;2023-09-19T15:51:12;3.23;;;1.80;;
67272;SDS011;54190;49.770;9.250;2023-09-19T15:53:44;4.67;;;2.00;;
67272;SDS011;54190;49.770;9.250;2023-09-19T15:56:11;4.17;;;2.17;;
67272;SDS011;54190;49.770;9.250;2023-09-19T15:58:40;4.80;;;1.70;;